Terminal Aerodrome Forecast
Issued by NWS Springfield, MO

Home | Current Version | Previous Version | Text Only | Print | Product List | Glossary On
Versions: 1 2 3 4 5 6 7 8 9 10 11 12 13
000
FTUS43 KSGF 222320
TAFSGF
TAF
KSGF 222320Z 2300/2324 01008KT P6SM -DZ OVC035
     FM230200 35007KT P6SM BKN070
     FM230600 35006KT P6SM SCT200
     FM231400 02007KT P6SM SKC=

USA.gov is the U.S. government's official web portal to all federal, state and local government web resources and services.